Time;durP1;ratioP1;P1;durP2;ratioP2;P2;SDS_P1;SDS_P2;PMS_P1;PMS_P2;Temp;Humidity;BMP_temperature;BMP_pressure;BME280_temperature;BME280_humidity;BME280_pressure;Samples;Min_cycle;Max_cycle;Signal;HPM_P1;HPM_P2
2023/06/06 00:24:57;;;;;;;10.37;6.50;;;10.90;99.90;;;;;;5803863;23;20202;-82
2023/06/06 00:45:13;;;;;;;14.17;7.93;;;10.70;99.90;;;;;;5785003;23;20552;-83
2023/06/06 01:11:19;;;;;;;11.10;7.53;;;10.50;99.90;;;;;;5842277;23;20634;-81
2023/06/06 01:15:39;;;;;;;9.87;8.50;;;10.30;99.90;;;;;;5747765;23;20521;-81
2023/06/06 01:35:56;;;;;;;11.00;7.73;;;10.20;99.90;;;;;;5605176;24;21229;-82
2023/06/06 02:27:21;;;;;;;10.37;7.73;;;10.00;99.90;;;;;;5814003;24;20183;-83
2023/06/06 02:57:04;;;;;;;15.40;10.13;;;10.20;99.90;;;;;;5705550;24;21220;-84
2023/06/06 03:27:29;;;;;;;14.93;10.70;;;11.50;99.90;;;;;;5661517;24;20648;-84
2023/06/06 04:28:27;;;;;;;8.67;5.97;;;14.40;84.10;;;;;;5837855;24;20586;-82
2023/06/06 05:03:29;;;;;;;6.17;4.73;;;16.50;78.50;;;;;;5512856;25;20567;-80
2023/06/06 05:24:06;;;;;;;5.50;4.33;;;17.60;76.10;;;;;;5602783;24;20180;-78
2023/06/06 05:49:31;;;;;;;7.23;4.30;;;18.90;68.20;;;;;;5551135;25;20683;-80
2023/06/06 06:49:57;;;;;;;5.15;2.83;;;22.30;49.60;;;;;;5539909;24;20731;-81
2023/06/06 07:15:18;;;;;;;3.65;2.20;;;22.90;46.00;;;;;;5691737;24;20389;-83
2023/06/06 07:40:33;;;;;;;5.20;2.40;;;23.70;43.70;;;;;;5694852;24;20481;-81
2023/06/06 09:01:44;;;;;;;3.58;1.77;;;25.60;40.70;;;;;;5937470;23;20826;-83
2023/06/06 09:17:37;;;;;;;2.22;2.00;;;25.70;40.60;;;;;;5896286;23;20248;-87
2023/06/06 10:43:12;;;;;;;3.00;2.20;;;26.40;39.30;;;;;;5666617;24;20509;-79
2023/06/06 11:44:16;;;;;;;4.18;2.83;;;26.50;39.90;;;;;;5581298;24;20593;-79
2023/06/06 12:10:05;;;;;;;2.80;2.42;;;26.20;39.90;;;;;;5717643;24;20199;-81
2023/06/06 12:50:36;;;;;;;3.00;2.40;;;26.80;39.50;;;;;;6043948;23;20180;-80
2023/06/06 13:15:46;;;;;;;2.95;2.25;;;28.40;39.10;;;;;;5743733;24;20172;-83
2023/06/06 13:35:49;;;;;;;3.10;2.83;;;28.10;38.50;;;;;;5617301;24;20532;-83
2023/06/06 14:21:46;;;;;;;2.90;2.60;;;30.50;38.20;;;;;;5833074;24;20635;-83
2023/06/06 14:42:16;;;;;;;3.65;2.60;;;31.40;38.30;;;;;;6036392;23;20174;-80
2023/06/06 15:02:13;;;;;;;3.85;2.85;;;31.20;38.30;;;;;;5927926;23;20548;-83
2023/06/06 15:32:50;;;;;;;3.55;3.25;;;27.60;39.00;;;;;;5887641;23;20614;-85
2023/06/06 16:02:46;;;;;;;4.03;3.20;;;27.50;40.40;;;;;;5857695;23;20536;-82
2023/06/06 16:28:46;;;;;;;5.45;3.33;;;26.40;39.70;;;;;;5799296;24;20180;-84
2023/06/06 16:48:36;;;;;;;3.80;3.47;;;25.30;39.60;;;;;;5766431;24;20203;-84
2023/06/06 17:14:08;;;;;;;6.07;3.70;;;25.00;41.10;;;;;;5827883;23;20185;-81
2023/06/06 17:55:00;;;;;;;6.93;3.55;;;23.60;42.90;;;;;;6076727;23;20173;-83
2023/06/06 18:15:19;;;;;;;5.05;4.07;;;22.70;46.00;;;;;;5870937;23;20254;-83
2023/06/06 18:35:19;;;;;;;7.22;3.95;;;22.80;43.90;;;;;;5602173;24;20259;-82
2023/06/06 19:00:39;;;;;;;9.27;5.30;;;21.80;47.10;;;;;;5709369;24;20232;-83
2023/06/06 19:16:08;;;;;;;9.43;5.73;;;20.30;52.30;;;;;;5672530;24;20227;-81
2023/06/06 19:41:17;;;;;;;11.33;6.80;;;19.00;79.30;;;;;;5722517;24;20271;-82
2023/06/06 20:01:44;;;;;;;10.47;7.20;;;19.00;82.40;;;;;;5761759;24;20304;-81
2023/06/06 20:32:00;;;;;;;10.50;7.40;;;18.80;82.80;;;;;;5826128;24;20168;-84
2023/06/06 21:32:45;;;;;;;8.17;7.13;;;17.70;85.00;;;;;;5519785;25;20284;-82
2023/06/06 22:03:21;;;;;;;8.57;6.77;;;16.90;86.30;;;;;;5906288;23;20197;-83
2023/06/06 22:33:14;;;;;;;8.90;7.70;;;16.50;85.50;;;;;;5926551;23;20476;-83
